Aviation Digital Data Service (ADDS)

Output produced by METARs form (0123 UTC 17 July 2019)
found at http://www.aviationweather.gov/metar/data/
 
Forecast for: LBBG (BURGAS , BG)
Text: TAF LBBG 162300Z 1700/1724 VRB04KT CAVOK
Forecast period: 0000 to 0800 UTC 17 July 2019
Forecast type: FROM: standard forecast or significant change
Winds: variable direction winds at 5 MPH (4 knots; 2.1 m/s)
Visibility: 6 or more miles 10+ km)
Ceiling: unknown
Clouds: missing
Weather: NSW  (no significant weather)
Text: TEMPO 1701/1705 5000 BR
Forecast period: 0100 to 0500 UTC 17 July 2019
Forecast type: TEMPORARY: The following changes expected for less than half the time period
Visibility: 3 miles (5 km)
Ceiling: unknown
Clouds: missing
Weather: BR  (mist)
Text: BECMG 1708/1710 12010KT
Forecast period: 0800 to 1900 UTC 17 July 2019
Forecast type: BECOMING: Conditions expected to become as follows by 1000 UTC 17 July 2019
Winds: from the ESE (120 degrees) at 12 MPH (10 knots; 5.1 m/s)
Visibility: 6 or more miles 10+ km)
Ceiling: unknown
Clouds: missing
Weather: NSW  (no significant weather)
Text: BECMG 1719/1720 VRB04KT
Forecast period: 1900 UTC 17 July 2019 to 0000 UTC 18 July 2019
Forecast type: BECOMING: Conditions expected to become as follows by 2000 UTC 17 July 2019
Winds: variable direction winds at 5 MPH (4 knots; 2.1 m/s)
Visibility: 6 or more miles 10+ km)
Ceiling: unknown
Clouds: missing
Weather: NSW  (no significant weather)